Orumieh, Iran
Current Conditions -  °F | °C
As of 3:30 PM on Saturday 25 Oct 2014 (Local Time) from OITR Reporting Station
Clear Clear  
Wind Chill: 64°   Ceiling: Unl
Heat Index: 64°   Visibility: 6mi
Dew Point: 41°   Wind: 5mph
Humidity: 42%   Direction: 120°ESE
Pressure: 30.03"   Gusts: NA
Location:  37.53°N, 45.08°E
Report Text: OITR 251230Z 12004KT CAVOK 18/05 Q1017
Loading
Personal Weather Stations






























Interactive Weather Map
Tropical Storm Tracking
New forecast layout! Learn more

10-Day Weather Forecast

Advertisements
Track Severe Weather on mobile